< Cyclone 197115 1971 Season Cyclone 197117 >
Cyclone 197116 (FIONA)
General InformationTrack Information on Google Maps || ResourceGoogle EarthGE AnimationAtom FeedGeoJSON
Detalied Best Track (Time Zone = UTC)
Year Month Day Hour Lat. Long. Pressure (hPa) Wind (kt) Class Image Chart
1971 2 16 20 -15.9 141.4 1002 0 0 -- --
1971 2 16 23 -15.9 140.8 1004 0 0 -- --
1971 2 17 11 -15.9 139.5 997 0 0 -- --
1971 2 17 23 -15.5 138.1 986 0 0 -- --
1971 2 18 05 -14.9 137.5 984 0 0 -- --
1971 2 18 11 -13.9 137.5 980 0 0 -- --
1971 2 18 17 -13.4 138.5 970 0 0 -- --
1971 2 18 23 -13.9 139.7 960 0 0 -- --
1971 2 19 11 -16.0 141.6 965 0 0 -- --
1971 2 19 15 -16.7 142.0 975 0 0 -- --
1971 2 19 17 -17.0 142.3 980 0 0 -- --
1971 2 19 23 -18.2 143.1 990 0 0 -- --
1971 2 20 11 -20.2 146.3 995 0 0 -- --
1971 2 20 23 -22.0 149.0 996 0 0 -- --
1971 2 21 02 -22.5 149.3 995 0 0 -- --
1971 2 21 09 -23.0 150.9 995 0 0 -- --
1971 2 21 11 -23.2 151.1 996 0 0 -- --
1971 2 21 23 -24.3 152.1 994 0 0 -- --
1971 2 22 08 -24.3 152.8 995 0 0 -- --
1971 2 22 11 -24.2 153.2 996 0 0 -- --
1971 2 22 20 -23.7 154.5 994 0 0 -- --
1971 2 22 23 -23.9 155.2 995 0 0 -- --
1971 2 23 02 -24.0 155.8 994 0 0 -- --
1971 2 23 11 -23.4 157.0 993 0 0 -- --
1971 2 23 23 -22.6 158.6 991 0 0 -- --
1971 2 24 11 -22.2 159.8 993 0 0 -- --
1971 2 24 23 -21.9 160.5 992 0 0 -- --
1971 2 25 11 -21.5 161.3 992 0 0 -- --
1971 2 25 23 -21.3 161.9 993 0 0 -- --
1971 2 26 11 -21.1 162.5 993 0 0 -- --
1971 2 26 23 -20.7 163.0 995 0 0 -- --
1971 2 27 11 -20.4 163.1 995 0 0 -- --
1971 2 27 14 -20.3 163.0 995 0 0 -- --
1971 2 27 23 -20.2 162.6 997 0 0 -- --
1971 2 28 11 -20.7 161.8 1001 0 0 -- --
< Cyclone 197115 1971 Season Cyclone 197117 >

Help